Aeroporto :
LOGIN :

Iscrizione | Disclaimer

   EN    FR    IT 

 










Sommario :    VFR   VFR Marginale   IFR   IFR Intensivo   IFR Molto Intensivo
Visibilità : 
Base nubi : 
>= 8 km
>= 3000ft
5 / 8 km
1000 / 3000 ft
1500m / 5 km
500 / 1000 ft
800 / 1500m
200 / 500 ft
< 800m
< 200 ft
Simboli :   Temporali  Nebbia  Neve Forte  Precipitazioni Forti  Vento > 20 kt
SIGMETs :   Varie  Temporali  Ghiacco  Turbolenza  Onda orograficha  Ceneri Vulcaniche






- Altitudine del aeroporto : 796 ft
- Codice IATA : SYT


LFLN - Saint-Yan

ULTIMO METAR :
  • 250230Z AUTO 16002KT 0550 0500 R33/0600N FG NSC 15/14 Q1012

METARs OBSOLETI :
  • 250200Z AUTO 15001KT 4400 BR NSC 15/15 Q1012
  • 250130Z AUTO 14003KT 1200 0800 R33/1200D BCFG NSC 15/14 Q1012
  • 250100Z AUTO 00000KT 9000 NSC 16/15 Q1013
  • 250030Z AUTO 00000KT 8000 3500 NSC 16/15 Q1013
  • 250000Z AUTO 15002KT 6000 NSC 16/16 Q1013
  • 242330Z AUTO VRB01KT CAVOK 16/15 Q1013
  • 242300Z AUTO 00000KT CAVOK 17/16 Q1013
  • 242230Z AUTO 13001KT CAVOK 18/17 Q1013
  • 242200Z AUTO 32002KT CAVOK 18/16 Q1013

TAF TAF LFLN
Valido dal 24 a 18 ore il 25 a 03 ore UTC


241700Z 2418/2503 04010KT CAVOK



MetMap, La meteo Aeronautica in un colpo d'occhio ! - Copyright ORBIFLY Dicembre 2007 - Disclaimer

ORBIFLY MET'MAP TEAM :

Programmazione e sviluppo : Alexandra Zaïnal
Concezione : Baudouin d'Aumeries
Supporto tecnico e logistico : Manuel Goepfert
Aiuto : Marc-Olivier Méhu
Aiuto per la traduzione : Arnaldo La Scala




FONTI E CREDITI :

   NOAA